Time;durP1;ratioP1;P1;durP2;ratioP2;P2;SDS_P1;SDS_P2;PMS_P1;PMS_P2;Temp;Humidity;BMP_temperature;BMP_pressure;BME280_temperature;BME280_humidity;BME280_pressure;Samples;Min_cycle;Max_cycle;Signal;HPM_P1;HPM_P2
2023/06/26 00:00:33;;;;;;;6.40;3.10;;;;;;;15.33;100.00;97134.21;110241;1242;69080;-67
2023/06/26 00:03:25;;;;;;;8.10;4.00;;;;;;;15.36;100.00;97132.64;110174;1242;69271;-67
2023/06/26 00:06:00;;;;;;;8.00;4.00;;;;;;;15.40;100.00;97134.60;110261;1241;58941;-67
2023/06/26 00:08:31;;;;;;;7.00;3.70;;;;;;;15.44;100.00;97137.54;110262;1242;58937;-65
2023/06/26 00:11:03;;;;;;;7.00;4.50;;;;;;;15.48;100.00;97136.79;110257;1241;70610;-64
2023/06/26 00:13:34;;;;;;;16.10;4.50;;;;;;;15.52;100.00;97135.52;110227;1241;68713;-65
2023/06/26 00:16:05;;;;;;;12.30;4.40;;;;;;;15.52;100.00;97130.17;110192;1248;69194;-65
2023/06/26 00:18:36;;;;;;;13.50;4.90;;;;;;;15.54;100.00;97129.65;110185;1248;59250;-65
2023/06/26 00:21:06;;;;;;;9.60;4.30;;;;;;;15.53;100.00;97130.16;110265;1241;58864;-66
2023/06/26 00:23:36;;;;;;;8.30;4.40;;;;;;;15.54;100.00;97129.12;110193;1242;69717;-67
2023/06/26 00:26:10;;;;;;;8.70;3.40;;;;;;;15.58;100.00;97129.57;110236;1242;69221;-67
2023/06/26 00:28:40;;;;;;;6.60;4.00;;;;;;;15.60;100.00;97132.06;110212;1242;69225;-65
2023/06/26 00:31:11;;;;;;;7.70;3.90;;;;;;;15.63;100.00;97127.59;110193;1242;58947;-67
2023/06/26 00:33:43;;;;;;;22.70;5.50;;;;;;;15.66;100.00;97130.14;110120;1240;58883;-65
2023/06/26 00:36:16;;;;;;;10.70;4.20;;;;;;;15.67;100.00;97128.77;110121;1241;70614;-65
2023/06/26 00:38:52;;;;;;;11.60;4.30;;;;;;;15.73;100.00;97133.86;110252;1242;68383;-65
2023/06/26 00:41:26;;;;;;;7.80;4.40;;;;;;;15.75;100.00;97131.83;110147;1245;69283;-66
2023/06/26 00:43:57;;;;;;;8.50;4.70;;;;;;;15.74;100.00;97131.45;110226;1241;58937;-67
2023/06/26 00:46:29;;;;;;;6.20;3.70;;;;;;;15.76;100.00;97129.15;110257;1243;58861;-65
2023/06/26 00:49:03;;;;;;;8.50;3.90;;;;;;;15.73;100.00;97132.77;110229;1242;69845;-65
2023/06/26 00:51:33;;;;;;;9.20;4.50;;;;;;;15.80;100.00;97133.47;110239;1240;69875;-65
2023/06/26 00:54:04;;;;;;;6.20;3.30;;;;;;;15.83;100.00;97132.38;110226;1240;68580;-66
2023/06/26 00:56:35;;;;;;;9.90;4.20;;;;;;;15.84;100.00;97130.80;110122;1244;58884;-65
2023/06/26 00:59:08;;;;;;;7.80;4.00;;;;;;;15.85;100.00;97127.59;110182;1244;58868;-66
2023/06/26 01:01:39;;;;;;;6.90;3.70;;;;;;;15.81;100.00;97121.27;110206;1242;70693;-65
2023/06/26 01:04:17;;;;;;;7.00;3.60;;;;;;;15.81;100.00;97120.93;110184;1242;68504;-66
2023/06/26 01:06:49;;;;;;;7.70;3.50;;;;;;;15.82;100.00;97121.57;110099;1243;69440;-65
2023/06/26 01:09:20;;;;;;;6.50;3.30;;;;;;;15.83;100.00;97124.27;110173;1241;58961;-67
2023/06/26 01:11:53;;;;;;;6.50;3.30;;;;;;;15.88;100.00;97126.45;110236;1242;58918;-65
2023/06/26 01:14:28;;;;;;;11.30;3.40;;;;;;;15.88;100.00;97125.34;110137;1243;69879;-65
2023/06/26 01:17:06;;;;;;;7.00;3.00;;;;;;;15.88;100.00;97120.06;110159;1245;69086;-65
2023/06/26 01:19:46;;;;;;;5.00;2.90;;;;;;;15.90;100.00;97119.70;110203;1241;69360;-66
2023/06/26 01:22:31;;;;;;;5.70;3.30;;;;;;;15.91;100.00;97113.81;110212;1241;58869;-66
2023/06/26 01:25:03;;;;;;;4.90;3.40;;;;;;;15.91;100.00;97112.95;110210;1242;58895;-66
2023/06/26 01:27:37;;;;;;;6.20;3.10;;;;;;;15.92;100.00;97113.91;110177;1245;71095;-66
2023/06/26 01:30:12;;;;;;;4.80;3.10;;;;;;;15.93;100.00;97117.30;110197;1242;69228;-67
2023/06/26 01:32:44;;;;;;;5.00;3.80;;;;;;;15.92;100.00;97116.15;110201;1242;69533;-65
2023/06/26 01:35:20;;;;;;;4.90;3.00;;;;;;;15.91;100.00;97113.84;110207;1242;58934;-65
2023/06/26 01:37:53;;;;;;;5.40;3.40;;;;;;;15.91;100.00;97113.62;110171;1245;58945;-66
2023/06/26 01:40:30;;;;;;;6.10;3.30;;;;;;;15.88;100.00;97115.52;110175;1242;69646;-66
2023/06/26 01:42:59;;;;;;;;;;;;;;;15.87;100.00;97115.75;110224;1242;69322;-65
2023/06/26 01:45:33;;;;;;;5.50;3.20;;;;;;;15.88;100.00;97113.02;110231;1242;69788;-67
2023/06/26 01:48:10;;;;;;;5.60;3.40;;;;;;;15.88;100.00;97109.39;110205;1240;58921;-67
2023/06/26 01:50:45;;;;;;;6.50;3.50;;;;;;;15.87;100.00;97107.86;110262;1242;58885;-66
2023/06/26 01:53:19;;;;;;;4.20;2.80;;;;;;;15.87;100.00;97105.31;110180;1241;69646;-67
2023/06/26 01:56:07;;;;;;;3.60;2.70;;;;;;;15.87;100.00;97106.10;110143;1243;68088;-65
2023/06/26 01:58:43;;;;;;;6.70;3.60;;;;;;;15.86;100.00;97108.13;110122;1240;69316;-67
2023/06/26 02:01:14;;;;;;;4.20;3.10;;;;;;;15.85;100.00;97107.55;110132;1245;58884;-65
2023/06/26 02:03:47;;;;;;;3.40;2.60;;;;;;;15.83;100.00;97111.23;110257;1242;58871;-65
2023/06/26 02:06:18;;;;;;;4.80;3.40;;;;;;;15.81;100.00;97111.80;110234;1241;69717;-65
2023/06/26 02:08:49;;;;;;;5.90;3.30;;;;;;;15.81;100.00;97112.56;110214;1240;68546;-65
2023/06/26 02:11:19;;;;;;;5.30;3.70;;;;;;;15.78;100.00;97109.73;110205;1242;68682;-65
2023/06/26 02:13:50;;;;;;;5.10;3.20;;;;;;;15.78;100.00;97111.13;110168;1240;58925;-66
2023/06/26 02:16:21;;;;;;;5.90;3.10;;;;;;;15.80;100.00;97107.84;110091;1240;58963;-65
2023/06/26 02:18:51;;;;;;;6.20;4.00;;;;;;;15.81;100.00;97112.00;110030;1245;70977;-66
2023/06/26 02:21:25;;;;;;;6.00;3.90;;;;;;;15.82;100.00;97107.30;110209;1242;69597;-65
2023/06/26 02:23:56;;;;;;;5.00;3.30;;;;;;;15.81;100.00;97107.23;110120;1245;68134;-65
2023/06/26 02:26:27;;;;;;;6.20;4.10;;;;;;;15.78;100.00;97110.10;110143;1244;58873;-66
2023/06/26 02:28:58;;;;;;;5.70;3.70;;;;;;;15.74;100.00;97111.26;110208;1242;58846;-65
2023/06/26 02:31:31;;;;;;;5.10;3.40;;;;;;;15.70;100.00;97108.34;110174;1241;69903;-65
2023/06/26 02:34:06;;;;;;;6.00;4.30;;;;;;;15.66;100.00;97112.56;110201;1248;69076;-65
2023/06/26 02:36:37;;;;;;;7.40;4.30;;;;;;;15.61;100.00;97110.77;110217;1241;69264;-65
2023/06/26 02:39:07;;;;;;;5.40;3.80;;;;;;;15.62;100.00;97114.37;110157;1244;58999;-65
2023/06/26 02:41:41;;;;;;;5.40;3.50;;;;;;;15.60;100.00;97115.04;110235;1242;58862;-65
2023/06/26 02:44:14;;;;;;;5.80;4.20;;;;;;;15.61;100.00;97112.35;110157;1245;69497;-65
2023/06/26 02:46:44;;;;;;;5.40;3.80;;;;;;;15.62;100.00;97110.80;110230;1241;69363;-66
2023/06/26 02:49:16;;;;;;;6.50;4.30;;;;;;;15.65;100.00;97111.95;110113;1240;68355;-65
2023/06/26 02:51:53;;;;;;;6.30;3.70;;;;;;;15.64;100.00;97113.31;110155;1244;58885;-65
2023/06/26 02:54:29;;;;;;;6.00;3.90;;;;;;;15.63;100.00;97115.54;110199;1240;59112;-65
2023/06/26 02:57:07;;;;;;;5.20;3.60;;;;;;;15.61;100.00;97114.25;110204;1240;70597;-65
2023/06/26 02:59:39;;;;;;;5.70;3.40;;;;;;;15.62;100.00;97113.95;110093;1245;69358;-63
2023/06/26 03:02:11;;;;;;;5.00;3.60;;;;;;;15.64;100.00;97119.11;110158;1244;69290;-66
2023/06/26 03:04:47;;;;;;;4.80;3.40;;;;;;;15.65;100.00;97121.83;110111;1240;58861;-66
2023/06/26 03:07:22;;;;;;;5.80;3.60;;;;;;;15.66;100.00;97126.27;110161;1242;58871;-67
2023/06/26 03:09:54;;;;;;;5.70;3.60;;;;;;;15.66;100.00;97127.53;110165;1240;69836;-67
2023/06/26 03:12:26;;;;;;;7.00;3.80;;;;;;;15.67;100.00;97126.03;110230;1242;69253;-65
2023/06/26 03:14:56;;;;;;;5.80;3.70;;;;;;;15.67;100.00;97128.66;110122;1246;68318;-66
2023/06/26 03:17:26;;;;;;;4.90;3.50;;;;;;;15.67;100.00;97123.31;110141;1241;58920;-64
2023/06/26 03:20:01;;;;;;;6.30;4.70;;;;;;;15.69;100.00;97125.44;110129;1244;58841;-65
2023/06/26 03:22:44;;;;;;;8.50;4.70;;;;;;;15.73;100.00;97132.82;110215;1241;70837;-65
2023/06/26 03:25:16;;;;;;;6.20;4.20;;;;;;;15.73;100.00;97128.08;110139;1241;68495;-65
2023/06/26 03:27:48;;;;;;;5.70;3.80;;;;;;;15.76;100.00;97123.19;110231;1242;68969;-65
2023/06/26 03:30:20;;;;;;;6.50;4.20;;;;;;;15.77;100.00;97122.02;110140;1244;58953;-66
2023/06/26 03:32:53;;;;;;;5.20;3.70;;;;;;;15.79;100.00;97124.46;110144;1245;58910;-64
2023/06/26 03:35:24;;;;;;;7.10;4.50;;;;;;;15.80;100.00;97125.23;110118;1241;70204;-64
2023/06/26 03:37:57;;;;;;;6.80;3.90;;;;;;;15.81;100.00;97129.59;110124;1245;68369;-66
2023/06/26 03:40:29;;;;;;;7.00;4.20;;;;;;;15.83;100.00;97131.16;110080;1244;69224;-65
2023/06/26 03:43:01;;;;;;;6.80;4.20;;;;;;;15.85;100.00;97133.04;110182;1241;58960;-62
2023/06/26 03:45:39;;;;;;;6.30;4.20;;;;;;;15.88;100.00;97134.70;110182;1243;58916;-66
2023/06/26 03:48:09;;;;;;;7.30;4.10;;;;;;;15.91;100.00;97133.80;110106;1241;70592;-63
2023/06/26 03:50:39;;;;;;;5.60;3.80;;;;;;;15.94;100.00;97137.88;110172;1242;69088;-67
2023/06/26 03:53:11;;;;;;;5.70;4.60;;;;;;;15.92;100.00;97137.83;110223;1242;69305;-65
2023/06/26 03:55:41;;;;;;;7.10;4.80;;;;;;;15.90;100.00;97139.56;110220;1241;58884;-66
2023/06/26 03:58:12;;;;;;;5.70;4.00;;;;;;;15.95;100.00;97139.58;110117;1248;58857;-65
2023/06/26 04:00:42;;;;;;;6.70;4.70;;;;;;;16.00;100.00;97137.68;110135;1244;70711;-65
2023/06/26 04:03:14;;;;;;;5.60;3.90;;;;;;;16.00;100.00;97142.19;110186;1245;69836;-67
2023/06/26 04:05:43;;;;;;;6.50;4.70;;;;;;;16.02;100.00;97144.64;110223;1242;69907;-67
2023/06/26 04:08:13;;;;;;;;;;;;;;;15.99;100.00;97148.17;110205;1242;58915;-65
2023/06/26 04:10:45;;;;;;;8.60;5.20;;;;;;;15.98;100.00;97146.27;110170;1242;58871;-67
2023/06/26 04:13:15;;;;;;;6.00;4.00;;;;;;;15.95;100.00;97146.40;110214;1241;70611;-67
2023/06/26 04:15:45;;;;;;;4.70;4.00;;;;;;;16.03;100.00;97143.39;110259;1242;69243;-67
2023/06/26 04:18:15;;;;;;;;;;;;;;;16.11;100.00;97138.21;110189;1242;69234;-66
2023/06/26 04:21:06;;;;;;;4.90;4.00;;;;;;;16.16;100.00;97137.46;110226;1241;58872;-66
2023/06/26 04:23:36;;;;;;;5.80;4.20;;;;;;;16.24;100.00;97141.58;110212;1242;58938;-66
2023/06/26 04:26:06;;;;;;;5.20;3.70;;;;;;;16.34;100.00;97143.48;110256;1242;70980;-66
2023/06/26 04:28:36;;;;;;;5.10;3.90;;;;;;;16.34;100.00;97148.75;110200;1240;69277;-70
2023/06/26 04:31:06;;;;;;;4.60;3.70;;;;;;;16.40;100.00;97148.66;110220;1242;69703;-65
2023/06/26 04:33:38;;;;;;;4.80;3.60;;;;;;;16.47;100.00;97151.11;110174;1242;58857;-66
2023/06/26 04:36:11;;;;;;;5.40;3.70;;;;;;;16.50;100.00;97152.88;110223;1241;58905;-66
2023/06/26 04:38:41;;;;;;;5.10;3.80;;;;;;;16.53;100.00;97152.57;110197;1242;68962;-66
2023/06/26 04:41:10;;;;;;;5.60;3.50;;;;;;;16.55;100.00;97152.79;110213;1249;69807;-66
2023/06/26 04:43:40;;;;;;;4.90;3.40;;;;;;;16.54;100.00;97151.27;110169;1241;69079;-65
2023/06/26 04:46:10;;;;;;;4.60;3.40;;;;;;;16.58;100.00;97150.69;110186;1242;58892;-67
2023/06/26 04:48:40;;;;;;;6.00;3.80;;;;;;;16.61;100.00;97146.35;110215;1242;58836;-65
2023/06/26 04:51:10;;;;;;;4.40;3.60;;;;;;;16.66;100.00;97151.95;110195;1240;71116;-65
2023/06/26 04:53:40;;;;;;;5.80;4.20;;;;;;;16.69;100.00;97153.56;110231;1242;69161;-67
2023/06/26 04:56:10;;;;;;;5.30;4.20;;;;;;;16.68;100.00;97157.41;110215;1241;68563;-68
2023/06/26 04:58:39;;;;;;;5.40;4.20;;;;;;;16.70;100.00;97159.14;110171;1243;58951;-67
2023/06/26 05:01:10;;;;;;;4.90;4.10;;;;;;;16.65;100.00;97156.99;110186;1242;58827;-65
2023/06/26 05:03:39;;;;;;;4.60;4.00;;;;;;;16.70;100.00;97158.83;110199;1243;69451;-65
2023/06/26 05:06:08;;;;;;;;;;;;;;;16.76;100.00;97157.13;110184;1242;69305;-66
2023/06/26 05:08:37;;;;;;;4.40;3.70;;;;;;;16.79;100.00;97160.00;110200;1242;69443;-68
2023/06/26 05:11:07;;;;;;;9.90;4.10;;;;;;;16.78;100.00;97165.36;110081;1244;59034;-67
2023/06/26 05:13:36;;;;;;;5.10;3.30;;;;;;;16.88;100.00;97169.17;110188;1240;58872;-67
2023/06/26 05:16:08;;;;;;;4.10;3.20;;;;;;;16.93;100.00;97169.31;110178;1241;70871;-66
2023/06/26 05:18:38;;;;;;;5.30;3.30;;;;;;;16.94;100.00;97174.86;110191;1242;69064;-66
2023/06/26 05:21:07;;;;;;;4.40;3.50;;;;;;;16.87;100.00;97177.65;110199;1241;69130;-66
2023/06/26 05:23:37;;;;;;;4.60;4.00;;;;;;;16.92;100.00;97179.45;110169;1242;58907;-66
2023/06/26 05:26:07;;;;;;;5.20;4.30;;;;;;;16.88;100.00;97183.92;110169;1242;58837;-66
2023/06/26 05:28:36;;;;;;;5.50;4.00;;;;;;;16.94;100.00;97184.19;110167;1240;71369;-66
2023/06/26 05:31:06;;;;;;;5.30;4.00;;;;;;;17.02;100.00;97185.65;110232;1242;69626;-66
2023/06/26 05:33:37;;;;;;;4.20;3.70;;;;;;;16.98;100.00;97186.77;110203;1241;69864;-66
2023/06/26 05:36:09;;;;;;;5.70;3.90;;;;;;;17.04;100.00;97183.35;110205;1240;58873;-65
2023/06/26 05:38:39;;;;;;;5.80;4.00;;;;;;;17.07;100.00;97188.48;110234;1242;58869;-66
2023/06/26 05:41:09;;;;;;;5.70;4.40;;;;;;;17.14;100.00;97186.54;110191;1242;70435;-68
2023/06/26 05:43:38;;;;;;;;;;;;;;;17.20;100.00;97184.32;110233;1242;69714;-65
2023/06/26 05:46:07;;;;;;;6.40;4.70;;;;;;;17.17;100.00;97181.98;110162;1242;69738;-65
2023/06/26 05:48:37;;;;;;;;;;;;;;;17.15;100.00;97177.21;110208;1242;58886;-65
2023/06/26 05:51:07;;;;;;;5.30;4.20;;;;;;;17.33;100.00;97173.11;110186;1241;58871;-65
2023/06/26 05:53:36;;;;;;;7.00;4.60;;;;;;;17.34;100.00;97176.38;110190;1241;71069;-67
2023/06/26 05:56:07;;;;;;;9.00;4.50;;;;;;;17.35;100.00;97172.50;110189;1241;69199;-66
2023/06/26 05:58:36;;;;;;;5.50;4.30;;;;;;;17.27;100.00;97171.54;110165;1241;69680;-65
2023/06/26 06:01:06;;;;;;;5.50;4.10;;;;;;;17.49;100.00;97171.08;110209;1242;58937;-66
2023/06/26 06:03:35;;;;;;;5.20;4.30;;;;;;;17.58;100.00;97165.50;110191;1242;58875;-65
2023/06/26 06:06:04;;;;;;;5.20;3.90;;;;;;;17.71;100.00;97167.69;110159;1242;71181;-65
2023/06/26 06:08:33;;;;;;;4.80;4.20;;;;;;;17.86;100.00;97165.82;110164;1243;69215;-65
2023/06/26 06:11:02;;;;;;;7.00;5.20;;;;;;;17.84;100.00;97167.44;110198;1242;69784;-65
2023/06/26 06:13:32;;;;;;;5.50;4.30;;;;;;;18.06;99.97;97168.38;110208;1242;58950;-66
2023/06/26 06:16:01;;;;;;;5.40;3.90;;;;;;;18.39;100.00;97164.63;110215;1242;58854;-65
2023/06/26 06:18:30;;;;;;;5.40;4.30;;;;;;;18.67;98.62;97164.11;110212;1241;69816;-66
2023/06/26 06:21:00;;;;;;;5.10;4.00;;;;;;;18.83;98.41;97161.84;110195;1242;69491;-67
2023/06/26 06:23:29;;;;;;;5.10;4.10;;;;;;;19.03;96.67;97163.81;110196;1243;68555;-66
2023/06/26 06:25:58;;;;;;;5.20;4.00;;;;;;;19.27;95.67;97165.53;110209;1242;58941;-66
2023/06/26 06:28:27;;;;;;;5.20;4.30;;;;;;;19.52;96.85;97164.02;110228;1241;58888;-66
2023/06/26 06:30:56;;;;;;;5.70;4.30;;;;;;;19.40;93.29;97162.14;110176;1242;71052;-65
2023/06/26 06:33:25;;;;;;;4.90;4.10;;;;;;;19.35;92.42;97162.02;110201;1242;69237;-66
2023/06/26 06:35:54;;;;;;;5.70;4.90;;;;;;;19.24;90.86;97163.23;110214;1241;69738;-66
2023/06/26 06:38:24;;;;;;;6.00;3.50;;;;;;;19.31;91.83;97163.66;110194;1242;58960;-67
2023/06/26 06:40:53;;;;;;;4.90;4.20;;;;;;;19.44;90.87;97161.89;110216;1242;58934;-65
2023/06/26 06:43:22;;;;;;;4.50;4.00;;;;;;;19.29;89.28;97160.76;110202;1242;71011;-65
2023/06/26 06:45:51;;;;;;;7.00;4.40;;;;;;;19.70;89.14;97163.39;110193;1241;69795;-65
2023/06/26 06:48:20;;;;;;;5.90;4.10;;;;;;;20.08;87.99;97168.52;110198;1240;68517;-65
2023/06/26 06:50:50;;;;;;;5.70;4.30;;;;;;;20.23;87.98;97169.10;110168;1242;58909;-66
2023/06/26 06:53:23;;;;;;;;;;;;;;;20.42;87.38;97170.00;110242;1242;58888;-67
2023/06/26 06:55:52;;;;;;;5.10;4.00;;;;;;;20.59;84.34;97167.23;110187;1242;70862;-67
2023/06/26 06:58:22;;;;;;;5.10;4.30;;;;;;;20.67;82.40;97167.15;110189;1241;69840;-66
2023/06/26 07:00:51;;;;;;;4.30;3.30;;;;;;;21.10;81.42;97168.84;110166;1242;69850;-65
2023/06/26 07:03:21;;;;;;;4.50;3.60;;;;;;;21.61;78.52;97166.73;110216;1240;58890;-66
2023/06/26 07:05:51;;;;;;;4.80;3.40;;;;;;;22.08;78.18;97164.34;110191;1242;58876;-65
2023/06/26 07:08:20;;;;;;;4.40;3.40;;;;;;;22.64;78.29;97163.25;110217;1242;70852;-66
2023/06/26 07:10:50;;;;;;;4.10;3.70;;;;;;;22.98;74.66;97163.93;110158;1242;69763;-66
2023/06/26 07:13:19;;;;;;;5.10;4.10;;;;;;;22.95;73.00;97161.37;110210;1242;69844;-67
2023/06/26 07:15:48;;;;;;;4.70;4.00;;;;;;;23.04;72.22;97160.77;110173;1242;58899;-67
2023/06/26 07:18:18;;;;;;;4.50;3.90;;;;;;;23.18;72.88;97158.05;110200;1242;58878;-66
2023/06/26 07:20:47;;;;;;;5.40;3.80;;;;;;;22.90;72.12;97163.17;110103;1245;70650;-65
2023/06/26 07:23:16;;;;;;;4.90;3.40;;;;;;;22.57;73.37;97157.62;110194;1246;69575;-67
2023/06/26 07:25:45;;;;;;;4.80;3.70;;;;;;;22.73;71.95;97156.61;110187;1242;69809;-66
2023/06/26 07:28:14;;;;;;;4.60;3.90;;;;;;;22.82;70.85;97155.84;110150;1248;59271;-66
2023/06/26 07:30:43;;;;;;;4.20;3.80;;;;;;;23.15;70.05;97153.61;110149;1242;58892;-66
2023/06/26 07:33:12;;;;;;;;;;;;;;;23.44;70.40;97159.38;110202;1241;70615;-66
2023/06/26 07:35:41;;;;;;;5.00;4.00;;;;;;;23.37;68.50;97159.05;110234;1242;69831;-66
2023/06/26 07:38:10;;;;;;;5.10;4.00;;;;;;;23.19;68.23;97159.64;110204;1242;68818;-65
2023/06/26 07:40:39;;;;;;;4.80;4.00;;;;;;;23.39;69.59;97158.88;110186;1240;58940;-65
2023/06/26 07:43:08;;;;;;;4.70;3.80;;;;;;;23.38;68.55;97161.35;110169;1242;58840;-67
2023/06/26 07:45:40;;;;;;;4.30;3.40;;;;;;;23.86;68.87;97159.77;110186;1242;71164;-65
2023/06/26 07:48:10;;;;;;;4.50;3.60;;;;;;;24.48;63.58;97163.23;110190;1242;69818;-65
2023/06/26 07:50:39;;;;;;;;;;;;;;;23.90;61.04;97159.66;110177;1240;68525;-67
2023/06/26 07:53:09;;;;;;;4.10;3.40;;;;;;;24.12;60.91;97159.71;110177;1242;58857;-67
2023/06/26 07:55:38;;;;;;;;;;;;;;;24.37;60.57;97163.25;110246;1242;58877;-66
2023/06/26 07:58:07;;;;;;;4.50;3.40;;;;;;;24.92;62.46;97162.13;110201;1242;69609;-66
2023/06/26 08:00:37;;;;;;;2.90;2.60;;;;;;;25.65;59.75;97158.77;110190;1242;69384;-66
2023/06/26 08:03:07;;;;;;;4.10;3.30;;;;;;;26.02;53.89;97154.52;110157;1241;69125;-65
2023/06/26 08:05:46;;;;;;;3.30;2.90;;;;;;;26.22;53.94;97158.09;110215;1241;58944;-68
2023/06/26 08:08:15;;;;;;;4.00;3.00;;;;;;;26.39;54.01;97156.29;110220;1242;58935;-67
2023/06/26 08:10:44;;;;;;;3.80;2.80;;;;;;;26.72;52.63;97157.59;110197;1241;71215;-67
2023/06/26 08:13:14;;;;;;;4.00;3.10;;;;;;;27.09;52.44;97154.95;110250;1244;69658;-67
2023/06/26 08:15:43;;;;;;;3.80;2.80;;;;;;;27.11;50.17;97153.10;110221;1242;69898;-68
2023/06/26 08:18:13;;;;;;;4.10;3.10;;;;;;;27.54;52.09;97154.20;110170;1242;58886;-67
2023/06/26 08:20:42;;;;;;;3.50;2.60;;;;;;;27.89;49.69;97153.32;110238;1242;58915;-67
2023/06/26 08:23:11;;;;;;;;;;;;;;;28.18;48.95;97153.35;110260;1241;71187;-67
2023/06/26 08:25:40;;;;;;;3.20;2.40;;;;;;;28.42;48.65;97153.42;110162;1242;69670;-66
2023/06/26 08:28:09;;;;;;;5.00;2.80;;;;;;;28.13;46.73;97152.06;110185;1243;69654;-68
2023/06/26 08:30:38;;;;;;;3.80;2.70;;;;;;;28.44;47.53;97153.25;110239;1249;58941;-67
2023/06/26 08:33:12;;;;;;;3.40;2.80;;;;;;;28.88;44.03;97150.65;110219;1242;58883;-66
2023/06/26 08:35:40;;;;;;;4.20;2.90;;;;;;;29.01;45.82;97151.16;110204;1242;70448;-69
2023/06/26 08:38:10;;;;;;;3.60;2.90;;;;;;;28.81;44.75;97152.27;110202;1242;69745;-67
2023/06/26 08:40:39;;;;;;;3.70;2.70;;;;;;;28.82;44.93;97146.05;110202;1248;69805;-67
2023/06/26 08:43:09;;;;;;;3.30;2.30;;;;;;;29.12;45.51;97147.70;110203;1240;58922;-65
2023/06/26 08:45:38;;;;;;;8.30;3.20;;;;;;;29.06;41.49;97142.63;110211;1241;58883;-67
2023/06/26 08:48:08;;;;;;;3.30;2.40;;;;;;;28.23;41.93;97140.46;110213;1242;69813;-67
2023/06/26 08:50:38;;;;;;;3.60;2.70;;;;;;;28.32;44.01;97142.20;110189;1242;69756;-68
2023/06/26 08:53:40;;;;;;;2.80;2.20;;;;;;;27.43;41.71;97144.88;110162;1242;69836;-67
2023/06/26 08:56:11;;;;;;;3.10;2.50;;;;;;;27.69;45.11;97147.09;110163;1244;58940;-67
2023/06/26 08:58:40;;;;;;;3.20;2.20;;;;;;;28.17;44.74;97146.42;110128;1241;58904;-67
2023/06/26 09:01:12;;;;;;;3.60;2.70;;;;;;;28.66;43.02;97147.65;110201;1245;70601;-67
2023/06/26 09:03:41;;;;;;;3.80;3.20;;;;;;;28.79;42.74;97145.91;110165;1243;69313;-67
2023/06/26 09:06:11;;;;;;;4.30;2.60;;;;;;;28.88;44.66;97143.27;110135;1245;69235;-67
2023/06/26 09:08:40;;;;;;;3.40;2.30;;;;;;;29.03;43.34;97148.53;110121;1245;58873;-68
2023/06/26 09:11:09;;;;;;;3.30;2.40;;;;;;;29.16;43.21;97146.23;110150;1245;59397;-68
2023/06/26 09:13:42;;;;;;;3.80;2.40;;;;;;;29.65;42.24;97139.53;110181;1244;71191;-67
2023/06/26 09:16:11;;;;;;;3.90;2.60;;;;;;;29.77;42.28;97135.77;110122;1245;69706;-67
2023/06/26 09:18:44;;;;;;;3.30;2.50;;;;;;;29.76;42.64;97136.86;110096;1243;69275;-67
2023/06/26 09:21:14;;;;;;;2.60;2.30;;;;;;;30.11;41.49;97133.69;110102;1244;58960;-67
2023/06/26 09:23:43;;;;;;;3.40;2.30;;;;;;;30.29;40.85;97135.23;110195;1244;58915;-68
2023/06/26 09:26:14;;;;;;;3.40;2.40;;;;;;;30.29;40.42;97133.70;110179;1241;70493;-68
2023/06/26 09:28:43;;;;;;;4.10;2.80;;;;;;;30.52;41.24;97133.60;110152;1243;70066;-68
2023/06/26 09:31:13;;;;;;;3.20;2.90;;;;;;;30.27;41.49;97128.70;110157;1241;69313;-68
2023/06/26 09:33:59;;;;;;;3.60;2.90;;;;;;;29.79;39.45;97131.56;110102;1243;58942;-68
2023/06/26 09:36:32;;;;;;;3.80;2.80;;;;;;;28.59;41.36;97133.19;110113;1245;58868;-69
2023/06/26 09:39:10;;;;;;;4.40;2.80;;;;;;;28.05;42.84;97131.14;110023;1245;70605;-68
2023/06/26 09:41:42;;;;;;;3.60;2.80;;;;;;;29.00;43.12;97132.14;110150;1244;69816;-68
2023/06/26 09:44:14;;;;;;;4.30;2.90;;;;;;;29.39;41.32;97132.02;110153;1244;68573;-67
2023/06/26 09:46:46;;;;;;;4.10;2.70;;;;;;;29.43;43.10;97131.90;110119;1243;58940;-67
2023/06/26 09:49:15;;;;;;;3.60;2.60;;;;;;;29.66;42.38;97124.61;110139;1243;58902;-68
2023/06/26 09:51:44;;;;;;;3.10;2.50;;;;;;;29.97;42.96;97124.92;110081;1241;71209;-67
2023/06/26 09:54:17;;;;;;;3.20;2.40;;;;;;;30.36;41.70;97127.73;110172;1242;69815;-67
2023/06/26 09:56:46;;;;;;;2.90;2.30;;;;;;;30.35;40.61;97126.89;110197;1242;69410;-66
2023/06/26 09:59:16;;;;;;;3.70;2.60;;;;;;;30.15;39.18;97126.08;110138;1242;58873;-66
2023/06/26 10:01:46;;;;;;;3.90;2.60;;;;;;;30.17;40.30;97119.86;110140;1242;58902;-68
2023/06/26 10:04:16;;;;;;;3.00;2.20;;;;;;;30.20;39.15;97117.16;110165;1245;71173;-67
2023/06/26 10:06:50;;;;;;;3.10;2.50;;;;;;;30.32;40.13;97118.16;110136;1241;69858;-69
2023/06/26 10:09:20;;;;;;;3.10;2.30;;;;;;;30.33;40.27;97116.67;110205;1242;69124;-68
2023/06/26 10:12:06;;;;;;;4.20;2.60;;;;;;;30.21;39.92;97109.15;110226;1242;59254;-68
2023/06/26 10:14:39;;;;;;;3.00;2.40;;;;;;;30.22;38.84;97108.32;110161;1244;58850;-67
2023/06/26 10:17:13;;;;;;;3.10;2.80;;;;;;;30.26;39.55;97107.77;110181;1242;71135;-68
2023/06/26 10:19:45;;;;;;;3.10;2.50;;;;;;;30.11;39.46;97098.48;110132;1242;70036;-67
2023/06/26 10:22:19;;;;;;;3.60;2.50;;;;;;;29.65;39.34;97100.64;110185;1242;69185;-68
2023/06/26 10:24:50;;;;;;;3.50;3.20;;;;;;;28.82;39.33;97103.89;110160;1248;58893;-68
2023/06/26 10:27:22;;;;;;;3.70;2.90;;;;;;;28.40;41.56;97100.42;110172;1243;58935;-67
2023/06/26 10:29:56;;;;;;;4.00;2.90;;;;;;;28.51;40.50;97100.87;110077;1245;70576;-67
2023/06/26 10:32:27;;;;;;;3.00;2.50;;;;;;;28.74;41.49;97095.89;110205;1243;69746;-70
2023/06/26 10:34:57;;;;;;;4.20;2.60;;;;;;;28.55;40.32;97097.45;110207;1240;69682;-68
2023/06/26 10:37:47;;;;;;;3.20;2.70;;;;;;;28.76;41.42;97096.64;110173;1244;58843;-70
2023/06/26 10:40:26;;;;;;;2.60;2.30;;;;;;;28.82;41.06;97092.14;110254;1243;58883;-67
2023/06/26 10:43:09;;;;;;;4.50;2.60;;;;;;;29.00;43.11;97088.58;110204;1241;71594;-68
2023/06/26 10:45:54;;;;;;;4.80;2.80;;;;;;;28.92;42.17;97089.95;110216;1242;69872;-67
2023/06/26 10:48:29;;;;;;;3.10;2.40;;;;;;;28.93;41.01;97088.46;110207;1242;69876;-69
2023/06/26 10:51:14;;;;;;;3.20;2.10;;;;;;;28.97;39.58;97086.46;110187;1242;58860;-68
2023/06/26 10:53:45;;;;;;;3.60;2.40;;;;;;;29.18;41.72;97088.80;110196;1242;58886;-68
2023/06/26 10:56:16;;;;;;;5.00;2.50;;;;;;;29.33;39.28;97083.08;110211;1242;69996;-66
2023/06/26 10:58:47;;;;;;;3.50;2.20;;;;;;;29.24;36.89;97084.27;109700;1242;695862;-68
2023/06/26 11:01:24;;;;;;;4.00;2.40;;;;;;;29.40;38.46;97082.41;110219;1241;69284;-67
2023/06/26 11:04:01;;;;;;;2.80;2.20;;;;;;;29.65;39.44;97079.79;110228;1243;58892;-66
2023/06/26 11:06:32;;;;;;;4.10;2.60;;;;;;;29.56;37.50;97083.21;110222;1242;58881;-67
2023/06/26 11:09:23;;;;;;;4.20;2.40;;;;;;;29.78;36.77;97075.56;110203;1242;71162;-68
2023/06/26 11:11:57;;;;;;;4.40;2.30;;;;;;;29.92;37.27;97081.80;110212;1243;69227;-67
2023/06/26 11:14:27;;;;;;;3.70;2.50;;;;;;;30.02;38.96;97081.20;110254;1242;70169;-69
2023/06/26 11:17:00;;;;;;;3.40;2.80;;;;;;;29.72;37.54;97087.22;110192;1242;58860;-68
2023/06/26 11:19:29;;;;;;;3.10;2.30;;;;;;;29.48;38.72;97082.08;110263;1241;58886;-69
2023/06/26 11:22:00;;;;;;;3.00;2.40;;;;;;;29.75;39.97;97079.53;110214;1242;71176;-67
2023/06/26 11:24:29;;;;;;;4.10;2.60;;;;;;;29.93;37.77;97076.99;110209;1243;69416;-67
2023/06/26 11:27:04;;;;;;;3.30;2.20;;;;;;;29.82;36.85;97073.48;110185;1242;70280;-68
2023/06/26 11:29:33;;;;;;;4.40;2.20;;;;;;;29.82;37.20;97073.52;110135;1245;58878;-68
2023/06/26 11:32:05;;;;;;;4.00;2.80;;;;;;;30.08;39.07;97080.18;110197;1242;58850;-67
2023/06/26 11:34:35;;;;;;;2.80;2.10;;;;;;;30.15;39.05;97076.65;110203;1240;71005;-67
2023/06/26 11:37:04;;;;;;;3.20;2.50;;;;;;;30.24;38.85;97076.69;110173;1242;69141;-66
2023/06/26 11:39:34;;;;;;;3.40;2.50;;;;;;;30.12;38.12;97079.22;110172;1242;69273;-67
2023/06/26 11:42:05;;;;;;;2.70;2.10;;;;;;;30.33;38.21;97080.45;110248;1245;58924;-68
2023/06/26 11:44:41;;;;;;;2.60;2.10;;;;;;;30.19;36.91;97082.96;110196;1242;58880;-66